createdAt,value
2023-03-12T00:00:22.661Z,-0.50
2023-03-12T00:02:50.223Z,-0.40
2023-03-12T00:05:17.718Z,-0.30
2023-03-12T00:07:44.852Z,-0.30
2023-03-12T00:10:12.499Z,-0.50
2023-03-12T00:12:39.943Z,-0.40
2023-03-12T00:15:08.091Z,-0.50
2023-03-12T00:17:35.580Z,-0.50
2023-03-12T00:20:03.977Z,-0.30
2023-03-12T00:22:31.467Z,-0.30
2023-03-12T00:24:59.009Z,-0.50
2023-03-12T00:27:26.897Z,-0.60
2023-03-12T00:29:54.618Z,-0.70
2023-03-12T00:32:22.280Z,-0.90
2023-03-12T00:34:55.801Z,-0.90
2023-03-12T00:37:23.368Z,-0.90
2023-03-12T00:39:50.724Z,-0.80
2023-03-12T00:42:18.246Z,-0.70
2023-03-12T00:44:46.240Z,-0.70
2023-03-12T00:47:14.072Z,-0.60
2023-03-12T00:49:41.520Z,-0.70
2023-03-12T00:52:09.030Z,-0.70
2023-03-12T00:54:36.465Z,-0.70
2023-03-12T00:57:03.832Z,-0.80
2023-03-12T00:59:31.484Z,-0.80
2023-03-12T01:01:59.097Z,-0.70
2023-03-12T01:04:26.738Z,-0.80
2023-03-12T01:06:55.988Z,-0.60
2023-03-12T01:09:23.845Z,-0.70
2023-03-12T01:11:51.342Z,-0.70
2023-03-12T01:14:19.046Z,-0.70
2023-03-12T01:16:46.593Z,-0.70
2023-03-12T01:19:14.126Z,-0.80
2023-03-12T01:21:41.603Z,-0.80
2023-03-12T01:24:09.287Z,-0.90
2023-03-12T01:26:36.723Z,-1.10
2023-03-12T01:29:04.162Z,-1.20
2023-03-12T01:31:31.716Z,-1.20
2023-03-12T01:33:59.286Z,-1.00
2023-03-12T01:36:28.993Z,-1.10
2023-03-12T01:38:58.313Z,-1.20
2023-03-12T01:41:26.470Z,-1.30
2023-03-12T01:43:53.913Z,-1.30
2023-03-12T01:46:33.272Z,-1.20
2023-03-12T01:49:15.750Z,-1.10
2023-03-12T01:51:53.912Z,-1.20
2023-03-12T01:54:40.168Z,-1.20
2023-03-12T01:57:10.492Z,-1.20
2023-03-12T01:59:52.812Z,-1.20
2023-03-12T02:02:23.906Z,-1.30
2023-03-12T02:04:51.236Z,-1.30
2023-03-12T02:07:18.772Z,-1.30
2023-03-12T02:09:48.381Z,-1.30
2023-03-12T02:12:16.555Z,-1.40
2023-03-12T02:14:44.598Z,-1.60
2023-03-12T02:17:11.919Z,-1.60
2023-03-12T02:20:11.290Z,-1.40
2023-03-12T02:22:39.326Z,-1.40
2023-03-12T02:25:51.284Z,-1.40
2023-03-12T02:28:20.170Z,-1.50
2023-03-12T02:30:49.056Z,-1.70
2023-03-12T02:33:17.081Z,-1.80
2023-03-12T02:35:45.607Z,-1.80
2023-03-12T02:38:36.007Z,-1.80
2023-03-12T02:41:29.031Z,-1.80
2023-03-12T02:43:58.541Z,-1.80
2023-03-12T02:46:26.244Z,-1.70
2023-03-12T02:48:53.683Z,-2.00
2023-03-12T02:51:21.926Z,-1.90
2023-03-12T02:53:55.210Z,-1.90
2023-03-12T02:56:24.791Z,-1.90
2023-03-12T02:58:52.071Z,-2.10
2023-03-12T03:01:20.809Z,-2.00
2023-03-12T03:03:48.519Z,-2.00
2023-03-12T03:06:16.214Z,-2.00
2023-03-12T03:08:43.880Z,-1.90
2023-03-12T03:11:11.319Z,-2.00
2023-03-12T03:13:38.783Z,-1.90
2023-03-12T03:16:06.537Z,-1.90
2023-03-12T03:18:34.018Z,-2.00
2023-03-12T03:21:04.576Z,-2.10
2023-03-12T03:23:32.118Z,-2.00
2023-03-12T03:25:59.947Z,-2.10
2023-03-12T03:28:28.116Z,-2.10
2023-03-12T03:30:58.487Z,-2.10
2023-03-12T03:33:25.870Z,-2.10
2023-03-12T03:35:55.796Z,-2.20
2023-03-12T03:38:24.418Z,-2.30
2023-03-12T03:40:51.764Z,-2.50
2023-03-12T03:43:19.096Z,-2.40
2023-03-12T03:45:46.712Z,-2.30
2023-03-12T03:48:14.279Z,-2.30
2023-03-12T03:50:42.004Z,-2.30
2023-03-12T03:53:09.699Z,-2.30
2023-03-12T03:55:38.296Z,-2.30
2023-03-12T03:58:06.171Z,-2.30
2023-03-12T04:00:34.151Z,-2.20
2023-03-12T04:03:01.402Z,-2.40
2023-03-12T04:05:28.895Z,-2.50
2023-03-12T04:07:56.491Z,-2.30
2023-03-12T04:10:24.793Z,-2.40
2023-03-12T04:12:53.096Z,-2.30
2023-03-12T04:15:20.611Z,-2.60
2023-03-12T04:17:48.103Z,-2.50
2023-03-12T04:20:15.413Z,-2.50
2023-03-12T04:22:42.603Z,-2.70
2023-03-12T04:25:10.305Z,-2.60
2023-03-12T04:27:37.672Z,-2.60
2023-03-12T04:30:05.332Z,-2.70
2023-03-12T04:32:32.548Z,-2.60
2023-03-12T04:34:59.979Z,-2.70
2023-03-12T04:37:27.779Z,-2.60
2023-03-12T04:39:55.297Z,-2.70
2023-03-12T04:42:22.791Z,-3.00
2023-03-12T04:44:52.817Z,-3.00
2023-03-12T04:47:20.267Z,-2.90
2023-03-12T04:49:47.823Z,-2.80
2023-03-12T04:52:15.174Z,-2.80
2023-03-12T04:54:42.540Z,-2.80
2023-03-12T04:57:09.889Z,-2.70
2023-03-12T04:59:37.395Z,-2.70
2023-03-12T05:02:04.980Z,-2.70
2023-03-12T05:04:33.704Z,-2.70
2023-03-12T05:07:01.340Z,-2.80
2023-03-12T05:09:28.723Z,-2.90
2023-03-12T05:11:56.320Z,-2.90
2023-03-12T05:14:23.819Z,-2.80
2023-03-12T05:16:50.978Z,-2.70
2023-03-12T05:19:18.250Z,-2.60
2023-03-12T05:21:45.640Z,-2.60
2023-03-12T05:24:12.931Z,-2.50
2023-03-12T05:26:40.679Z,-2.80
2023-03-12T05:29:08.257Z,-2.80
2023-03-12T05:31:36.847Z,-2.90
2023-03-12T05:34:04.714Z,-3.00
2023-03-12T05:36:31.917Z,-3.10
2023-03-12T05:38:59.439Z,-2.80
2023-03-12T05:41:28.393Z,-2.70
2023-03-12T05:43:56.561Z,-2.80
2023-03-12T05:46:25.086Z,-2.70
2023-03-12T05:48:53.007Z,-2.60
2023-03-12T05:51:22.489Z,-2.60
2023-03-12T05:53:50.223Z,-2.70
2023-03-12T05:56:18.377Z,-2.60
2023-03-12T05:58:47.813Z,-2.40
2023-03-12T06:01:20.714Z,-2.40
2023-03-12T06:03:48.234Z,-2.30
2023-03-12T06:06:15.831Z,-2.30
2023-03-12T06:08:43.255Z,-2.20
2023-03-12T06:11:10.668Z,-2.20
2023-03-12T06:13:38.219Z,-2.10
2023-03-12T06:16:06.823Z,-2.00
2023-03-12T06:18:34.609Z,-2.00
2023-03-12T06:21:15.889Z,-2.00
2023-03-12T06:23:43.341Z,-1.90
2023-03-12T06:26:11.368Z,-1.70
2023-03-12T06:28:38.748Z,-1.70
2023-03-12T06:31:06.276Z,-1.70
2023-03-12T06:33:34.003Z,-1.70
2023-03-12T06:36:03.232Z,-1.70
2023-03-12T06:38:30.542Z,-1.50
2023-03-12T06:41:02.846Z,-1.50
2023-03-12T06:43:31.177Z,-1.20
2023-03-12T06:45:59.407Z,-1.30
2023-03-12T06:48:27.741Z,-1.10
2023-03-12T06:50:55.214Z,-1.20
2023-03-12T06:53:22.780Z,-1.20
2023-03-12T06:55:50.900Z,-1.20
2023-03-12T06:58:19.332Z,-1.00
2023-03-12T07:00:47.010Z,-1.00
2023-03-12T07:03:14.529Z,-0.80
2023-03-12T07:05:45.385Z,-0.90
2023-03-12T07:08:13.141Z,-0.80
2023-03-12T07:10:41.095Z,-0.60
2023-03-12T07:13:08.433Z,-0.50
2023-03-12T07:15:35.984Z,-0.30
2023-03-12T07:18:11.432Z,-0.20
2023-03-12T07:20:40.280Z,-0.10
2023-03-12T07:23:07.488Z,0.10
2023-03-12T07:25:38.932Z,0.30
2023-03-12T07:28:06.767Z,0.50
2023-03-12T07:30:34.284Z,0.70
2023-03-12T07:33:06.165Z,0.90
2023-03-12T07:35:33.932Z,0.80
2023-03-12T07:38:01.571Z,0.80
2023-03-12T07:40:29.317Z,0.70
2023-03-12T07:42:56.864Z,0.90
2023-03-12T07:45:24.468Z,1.10
2023-03-12T07:47:51.961Z,1.30
2023-03-12T07:50:19.762Z,1.50
2023-03-12T07:52:47.335Z,1.90
2023-03-12T07:55:15.208Z,2.20
2023-03-12T07:57:42.591Z,2.20
2023-03-12T08:00:11.216Z,2.20
2023-03-12T08:02:39.001Z,2.30
2023-03-12T08:05:07.093Z,2.30
2023-03-12T08:07:35.402Z,2.80
2023-03-12T08:10:03.937Z,3.20
2023-03-12T08:12:31.222Z,3.30
2023-03-12T08:14:58.737Z,3.50
2023-03-12T08:17:26.138Z,3.80
2023-03-12T08:19:53.502Z,3.90
2023-03-12T08:22:20.938Z,3.80
2023-03-12T08:24:48.791Z,3.60
2023-03-12T08:27:16.581Z,3.70
2023-03-12T08:29:43.667Z,4.00
2023-03-12T08:32:11.277Z,4.20
2023-03-12T08:34:39.177Z,4.40
2023-03-12T08:37:06.513Z,4.30
2023-03-12T08:39:33.789Z,4.50
2023-03-12T08:42:01.385Z,4.70
2023-03-12T08:44:29.120Z,4.70
2023-03-12T08:46:56.616Z,4.60
2023-03-12T08:49:24.314Z,4.70
2023-03-12T08:51:54.479Z,4.60
2023-03-12T08:54:21.744Z,4.60
2023-03-12T08:56:52.721Z,4.90
2023-03-12T08:59:20.951Z,5.10
2023-03-12T09:01:48.539Z,5.20
2023-03-12T09:04:16.714Z,5.20
2023-03-12T09:06:44.425Z,5.40
2023-03-12T09:09:11.872Z,5.40
2023-03-12T09:11:42.855Z,5.30
2023-03-12T09:16:58.494Z,5.40
2023-03-12T09:19:26.061Z,5.00
2023-03-12T09:21:53.587Z,4.90
2023-03-12T09:24:21.173Z,5.00
2023-03-12T09:26:49.299Z,5.20
2023-03-12T09:29:16.771Z,5.30
2023-03-12T09:31:44.037Z,5.50
2023-03-12T09:34:11.293Z,5.20
2023-03-12T09:36:38.527Z,5.20
2023-03-12T09:39:06.198Z,5.60
2023-03-12T09:41:36.451Z,5.40
2023-03-12T09:44:31.371Z,5.60
2023-03-12T09:47:09.444Z,5.80
2023-03-12T09:49:41.153Z,5.80
2023-03-12T09:52:26.266Z,5.90
2023-03-12T09:55:16.541Z,5.90
2023-03-12T09:57:44.784Z,5.80
2023-03-12T10:00:13.825Z,5.60
2023-03-12T10:03:05.993Z,5.50
2023-03-12T10:06:01.955Z,5.50
2023-03-12T10:08:47.476Z,5.60
2023-03-12T10:11:51.414Z,5.30
2023-03-12T10:14:51.583Z,5.00
2023-03-12T10:17:40.262Z,5.10
2023-03-12T10:20:19.791Z,4.80
2023-03-12T10:22:47.085Z,4.90
2023-03-12T10:25:22.246Z,5.10
2023-03-12T10:27:49.705Z,5.00
2023-03-12T10:30:27.352Z,5.20
2023-03-12T10:32:57.706Z,5.20
2023-03-12T10:35:27.060Z,5.10
2023-03-12T10:38:01.924Z,5.10
2023-03-12T10:40:31.512Z,5.30
2023-03-12T10:42:58.701Z,5.30
2023-03-12T10:45:53.135Z,5.20
2023-03-12T10:48:26.746Z,5.30
2023-03-12T10:51:04.602Z,5.20
2023-03-12T10:53:33.330Z,5.30
2023-03-12T10:56:12.052Z,5.60
2023-03-12T10:58:47.010Z,5.50
2023-03-12T11:01:30.548Z,5.60
2023-03-12T11:04:29.977Z,5.50
2023-03-12T11:07:31.335Z,5.60
2023-03-12T11:10:15.324Z,5.50
2023-03-12T11:13:01.878Z,5.30
2023-03-12T11:15:36.521Z,5.20
2023-03-12T11:18:21.124Z,5.40
2023-03-12T11:20:56.964Z,5.50
2023-03-12T11:23:29.731Z,5.70
2023-03-12T11:25:58.207Z,5.20
2023-03-12T11:28:29.583Z,5.30
2023-03-12T11:30:58.588Z,5.20
2023-03-12T11:33:26.234Z,5.30
2023-03-12T11:35:53.492Z,5.20
2023-03-12T11:38:26.829Z,5.40
2023-03-12T11:41:06.055Z,5.20
2023-03-12T11:43:43.723Z,5.20
2023-03-12T11:46:29.050Z,5.40
2023-03-12T11:49:15.983Z,5.60
2023-03-12T11:51:50.991Z,6.00
2023-03-12T11:54:46.808Z,6.40
2023-03-12T11:57:17.205Z,6.30
2023-03-12T12:00:07.500Z,6.20
2023-03-12T12:02:43.891Z,6.20
2023-03-12T12:05:23.658Z,5.80
2023-03-12T12:08:28.340Z,5.90
2023-03-12T12:11:10.663Z,5.80
2023-03-12T12:13:53.290Z,5.70
2023-03-12T12:16:31.112Z,5.70
2023-03-12T12:19:23.977Z,5.70
2023-03-12T12:22:09.999Z,6.00
2023-03-12T12:25:13.250Z,6.10
2023-03-12T12:28:20.518Z,6.20
2023-03-12T12:31:09.632Z,6.30
2023-03-12T12:33:59.016Z,6.20
2023-03-12T12:36:27.102Z,6.20
2023-03-12T12:38:57.417Z,5.80
2023-03-12T12:41:26.105Z,6.30
2023-03-12T12:44:01.594Z,6.30
2023-03-12T12:46:36.353Z,6.30
2023-03-12T12:49:26.848Z,6.40
2023-03-12T12:52:14.449Z,6.40
2023-03-12T12:55:13.272Z,6.30
2023-03-12T12:57:45.583Z,6.20
2023-03-12T13:00:45.275Z,6.30
2023-03-12T13:03:20.169Z,5.50
2023-03-12T13:05:53.746Z,6.20
2023-03-12T13:08:40.553Z,6.20
2023-03-12T13:11:27.977Z,6.10
2023-03-12T13:14:05.047Z,6.10
2023-03-12T13:16:39.586Z,6.10
2023-03-12T13:19:21.564Z,5.80
2023-03-12T13:22:13.921Z,5.80
2023-03-12T13:25:05.620Z,5.50
2023-03-12T13:27:38.250Z,5.70
2023-03-12T13:30:33.710Z,5.90
2023-03-12T13:33:02.101Z,5.80
2023-03-12T13:36:10.952Z,5.60
2023-03-12T13:38:40.313Z,5.80
2023-03-12T13:41:07.885Z,5.70
2023-03-12T13:43:38.058Z,5.80
2023-03-12T13:46:15.244Z,5.60
2023-03-12T13:48:49.044Z,5.70
2023-03-12T13:51:24.043Z,5.70
2023-03-12T13:53:54.000Z,5.60
2023-03-12T13:56:21.514Z,5.50
2023-03-12T13:58:56.480Z,5.40
2023-03-12T14:01:27.901Z,5.30
2023-03-12T14:04:01.496Z,5.30
2023-03-12T14:06:30.618Z,5.00
2023-03-12T14:09:13.743Z,5.10
2023-03-12T14:12:05.661Z,5.10
2023-03-12T14:14:51.396Z,5.20
2023-03-12T14:17:29.590Z,5.20
2023-03-12T14:20:17.313Z,5.30
2023-03-12T14:22:46.530Z,5.30
2023-03-12T14:25:17.040Z,5.50
2023-03-12T14:27:46.591Z,5.50
2023-03-12T14:30:24.264Z,5.60
2023-03-12T14:32:56.266Z,5.60
2023-03-12T14:35:45.314Z,5.50
2023-03-12T14:38:17.063Z,5.70
2023-03-12T14:40:58.454Z,5.90
2023-03-12T14:43:30.441Z,5.70
2023-03-12T14:46:14.714Z,5.60
2023-03-12T14:48:42.455Z,5.60
2023-03-12T14:51:41.694Z,5.40
2023-03-12T14:54:19.894Z,5.50
2023-03-12T14:56:47.136Z,5.40
2023-03-12T14:59:31.788Z,5.30
2023-03-12T15:02:05.851Z,5.30
2023-03-12T15:04:34.437Z,5.30
2023-03-12T15:07:05.043Z,5.40
2023-03-12T15:09:34.678Z,5.40
2023-03-12T15:12:07.654Z,5.30
2023-03-12T15:14:38.334Z,5.40
2023-03-12T15:17:05.957Z,5.10
2023-03-12T15:19:39.773Z,5.10
2023-03-12T15:22:18.000Z,5.20
2023-03-12T15:24:45.577Z,5.10
2023-03-12T15:27:25.619Z,4.80
2023-03-12T15:29:53.252Z,4.90
2023-03-12T15:32:21.482Z,4.90
2023-03-12T15:34:49.173Z,4.80
2023-03-12T15:37:24.699Z,4.80
2023-03-12T15:39:52.797Z,4.80
2023-03-12T15:42:23.864Z,4.90
2023-03-12T15:45:03.328Z,4.90
2023-03-12T15:47:32.947Z,5.10
2023-03-12T15:50:02.713Z,5.10
2023-03-12T15:52:34.671Z,5.10
2023-03-12T15:55:05.545Z,4.90
2023-03-12T15:57:34.414Z,4.90
2023-03-12T16:00:12.470Z,4.70
2023-03-12T16:03:08.452Z,4.60
2023-03-12T16:05:40.207Z,4.70
2023-03-12T16:08:29.747Z,4.80
2023-03-12T16:10:57.255Z,4.70
2023-03-12T16:13:28.821Z,4.70
2023-03-12T16:15:56.110Z,4.70
2023-03-12T16:18:23.511Z,4.60
2023-03-12T16:20:51.527Z,4.60
2023-03-12T16:23:19.383Z,4.50
2023-03-12T16:25:56.834Z,4.40
2023-03-12T16:28:37.873Z,5.00
2023-03-12T16:31:14.382Z,4.40
2023-03-12T16:33:42.256Z,4.40
2023-03-12T16:36:17.117Z,4.30
2023-03-12T16:38:45.337Z,4.40
2023-03-12T16:41:17.584Z,4.10
2023-03-12T16:43:50.305Z,4.00
2023-03-12T16:46:20.124Z,4.10
2023-03-12T16:48:51.397Z,4.20
2023-03-12T16:51:18.711Z,4.20
2023-03-12T16:53:49.136Z,4.20
2023-03-12T16:56:22.177Z,4.20
2023-03-12T16:58:54.712Z,4.20
2023-03-12T17:01:23.910Z,4.00
2023-03-12T17:03:53.538Z,3.80
2023-03-12T17:06:23.438Z,3.90
2023-03-12T17:08:51.176Z,4.00
2023-03-12T17:11:19.820Z,4.00
2023-03-12T17:13:49.149Z,3.90
2023-03-12T17:16:16.563Z,4.00
2023-03-12T17:18:44.113Z,3.90
2023-03-12T17:21:13.001Z,4.00
2023-03-12T17:23:40.459Z,3.90
2023-03-12T17:26:07.791Z,4.00
2023-03-12T17:28:35.300Z,4.00
2023-03-12T17:31:03.474Z,4.00
2023-03-12T17:33:31.103Z,4.00
2023-03-12T17:36:02.844Z,4.00
2023-03-12T17:38:30.883Z,4.10
2023-03-12T17:40:58.210Z,4.20
2023-03-12T17:43:25.696Z,4.20
2023-03-12T17:45:53.086Z,4.10
2023-03-12T17:48:23.414Z,4.00
2023-03-12T17:50:50.868Z,4.10
2023-03-12T17:53:18.309Z,4.00
2023-03-12T17:55:45.512Z,3.90
2023-03-12T17:58:12.975Z,4.00
2023-03-12T18:00:40.397Z,4.10
2023-03-12T18:03:07.865Z,4.00
2023-03-12T18:05:39.930Z,4.10
2023-03-12T18:08:07.529Z,4.10
2023-03-12T18:10:36.169Z,4.10
2023-03-12T18:13:03.605Z,4.80
2023-03-12T18:15:31.263Z,4.00
2023-03-12T18:17:59.229Z,4.10
2023-03-12T18:20:37.856Z,4.10
2023-03-12T18:23:06.425Z,4.20
2023-03-12T18:25:33.615Z,4.10
2023-03-12T18:28:01.008Z,4.20
2023-03-12T18:30:28.647Z,4.30
2023-03-12T18:32:56.096Z,4.30
2023-03-12T18:35:29.021Z,4.20
2023-03-12T18:38:00.122Z,4.20
2023-03-12T18:40:30.619Z,4.30
2023-03-12T18:42:58.879Z,4.30
2023-03-12T18:45:26.994Z,4.40
2023-03-12T18:47:54.410Z,4.40
2023-03-12T18:50:22.143Z,4.50
2023-03-12T18:52:49.543Z,4.50
2023-03-12T18:55:17.173Z,4.50
2023-03-12T18:57:45.055Z,4.40
2023-03-12T19:00:18.182Z,4.50
2023-03-12T19:02:47.871Z,4.50
2023-03-12T19:05:15.790Z,4.50
2023-03-12T19:07:43.009Z,4.60
2023-03-12T19:10:11.028Z,4.60
2023-03-12T19:12:50.987Z,4.50
2023-03-12T19:15:20.690Z,4.60
2023-03-12T19:17:48.193Z,4.60
2023-03-12T19:20:15.890Z,4.70
2023-03-12T19:22:43.193Z,4.80
2023-03-12T19:25:10.673Z,4.70
2023-03-12T19:27:38.062Z,4.70
2023-03-12T19:30:06.248Z,4.70
2023-03-12T19:32:43.327Z,4.60
2023-03-12T19:35:11.935Z,4.50
2023-03-12T19:37:39.469Z,4.60
2023-03-12T19:40:07.483Z,4.70
2023-03-12T19:42:34.915Z,4.50
2023-03-12T19:45:02.304Z,4.30
2023-03-12T19:47:30.028Z,4.30
2023-03-12T19:49:57.870Z,4.50
2023-03-12T19:52:25.233Z,4.60
2023-03-12T19:55:03.736Z,4.60
2023-03-12T19:57:32.150Z,4.70
2023-03-12T19:59:59.585Z,4.70
2023-03-12T20:02:27.085Z,4.70
2023-03-12T20:04:55.690Z,4.80
2023-03-12T20:07:22.969Z,4.80
2023-03-12T20:09:50.497Z,4.80
2023-03-12T20:12:17.700Z,4.80
2023-03-12T20:14:45.310Z,4.80
2023-03-12T20:17:13.786Z,4.80
2023-03-12T20:19:41.450Z,4.80
2023-03-12T20:22:08.716Z,4.60
2023-03-12T20:24:36.077Z,4.60
2023-03-12T20:27:04.424Z,4.50
2023-03-12T20:29:31.891Z,4.40
2023-03-12T20:31:59.207Z,4.20
2023-03-12T20:34:26.694Z,4.30
2023-03-12T20:36:54.085Z,4.30
2023-03-12T20:39:21.547Z,4.50
2023-03-12T20:41:49.784Z,4.60
2023-03-12T20:44:17.320Z,4.70
2023-03-12T20:46:44.972Z,4.70
2023-03-12T20:49:12.406Z,4.70
2023-03-12T20:51:40.847Z,4.80
2023-03-12T20:54:08.519Z,4.80
2023-03-12T20:56:36.313Z,4.70
2023-03-12T20:59:03.730Z,4.80
2023-03-12T21:01:31.589Z,4.90
2023-03-12T21:03:59.288Z,4.90
2023-03-12T21:06:27.158Z,4.90
2023-03-12T21:08:58.264Z,4.90
2023-03-12T21:11:27.235Z,4.80
2023-03-12T21:13:54.472Z,4.90
2023-03-12T21:16:21.780Z,5.00
2023-03-12T21:18:49.185Z,5.00
2023-03-12T21:21:16.768Z,5.00
2023-03-12T21:23:44.023Z,5.10
2023-03-12T21:26:11.402Z,5.10
2023-03-12T21:28:38.681Z,5.10
2023-03-12T21:31:16.470Z,5.00
2023-03-12T21:33:44.092Z,4.90
2023-03-12T21:36:13.075Z,4.90
2023-03-12T21:38:41.070Z,4.90
2023-03-12T21:41:09.330Z,5.00
2023-03-12T21:43:37.382Z,5.10
2023-03-12T21:46:08.579Z,5.30
2023-03-12T21:48:36.026Z,5.30
2023-03-12T21:51:04.808Z,5.30
2023-03-12T21:53:32.385Z,5.30
2023-03-12T21:56:00.732Z,5.40
2023-03-12T21:58:28.472Z,5.50
2023-03-12T22:01:12.810Z,5.50
2023-03-12T22:03:40.847Z,5.60
2023-03-12T22:06:08.664Z,5.50
2023-03-12T22:08:36.509Z,5.50
2023-03-12T22:11:04.876Z,5.60
2023-03-12T22:13:32.121Z,5.60
2023-03-12T22:16:06.452Z,5.60
2023-03-12T22:18:36.485Z,5.60
2023-03-12T22:21:05.592Z,5.60
2023-03-12T22:23:33.186Z,5.70
2023-03-12T22:26:01.879Z,5.60
2023-03-12T22:28:29.399Z,5.60
2023-03-12T22:31:04.088Z,5.60
2023-03-12T22:33:31.540Z,5.60
2023-03-12T22:35:58.944Z,5.50
2023-03-12T22:38:26.503Z,5.50
2023-03-12T22:40:55.749Z,5.50
2023-03-12T22:43:25.601Z,5.50
2023-03-12T22:45:55.658Z,5.40
2023-03-12T22:48:23.331Z,5.40
2023-03-12T22:50:54.755Z,5.40
2023-03-12T22:53:21.943Z,5.50
2023-03-12T22:56:00.067Z,5.50
2023-03-12T22:58:28.208Z,5.60
2023-03-12T23:01:00.447Z,5.60
2023-03-12T23:03:29.459Z,5.60
2023-03-12T23:05:56.852Z,5.60
2023-03-12T23:08:24.005Z,5.60
2023-03-12T23:10:55.536Z,5.60
2023-03-12T23:13:23.416Z,5.60
2023-03-12T23:15:50.632Z,5.70
2023-03-12T23:18:18.124Z,5.60
2023-03-12T23:20:45.722Z,5.70
2023-03-12T23:23:15.841Z,5.50
2023-03-12T23:25:43.448Z,5.50
2023-03-12T23:28:10.733Z,5.60
2023-03-12T23:30:38.053Z,5.50
2023-03-12T23:33:05.490Z,5.40
2023-03-12T23:35:32.852Z,5.40
2023-03-12T23:38:00.864Z,5.40
2023-03-12T23:40:28.453Z,5.40
2023-03-12T23:42:55.893Z,5.40
2023-03-12T23:45:23.626Z,5.40
2023-03-12T23:47:51.110Z,5.50
2023-03-12T23:50:18.728Z,6.20
2023-03-12T23:52:46.057Z,5.40
2023-03-12T23:55:13.151Z,5.50
2023-03-12T23:57:40.368Z,5.40
